sensor_id;sensor_type;location;lat;lon;timestamp;temperature;humidity
41547;DHT22;27271;45.412;10.852;2024-02-16T00:00:18;4.90;14.90
41547;DHT22;27271;45.412;10.852;2024-02-16T00:03:40;4.90;20.60
41547;DHT22;27271;45.412;10.852;2024-02-16T00:07:02;5.00;29.70
41547;DHT22;27271;45.412;10.852;2024-02-16T00:10:25;5.00;18.70
41547;DHT22;27271;45.412;10.852;2024-02-16T00:13:47;5.00;3.20
41547;DHT22;27271;45.412;10.852;2024-02-16T00:17:09;5.00;1.00
41547;DHT22;27271;45.412;10.852;2024-02-16T00:20:32;5.00;1.00
41547;DHT22;27271;45.412;10.852;2024-02-16T00:23:54;5.00;1.00
41547;DHT22;27271;45.412;10.852;2024-02-16T00:27:17;5.00;1.00
41547;DHT22;27271;45.412;10.852;2024-02-16T00:30:39;5.00;1.00
41547;DHT22;27271;45.412;10.852;2024-02-16T00:34:01;4.90;1.00
41547;DHT22;27271;45.412;10.852;2024-02-16T00:37:23;5.00;1.00
41547;DHT22;27271;45.412;10.852;2024-02-16T00:40:46;4.90;1.00
41547;DHT22;27271;45.412;10.852;2024-02-16T00:44:08;4.90;1.00
41547;DHT22;27271;45.412;10.852;2024-02-16T00:47:30;4.90;21.30
41547;DHT22;27271;45.412;10.852;2024-02-16T00:50:53;4.90;12.70
41547;DHT22;27271;45.412;10.852;2024-02-16T00:54:15;4.90;1.00
41547;DHT22;27271;45.412;10.852;2024-02-16T00:57:37;4.80;1.00
41547;DHT22;27271;45.412;10.852;2024-02-16T01:00:59;4.70;1.00
41547;DHT22;27271;45.412;10.852;2024-02-16T01:04:21;4.60;1.00
41547;DHT22;27271;45.412;10.852;2024-02-16T01:07:46;4.50;1.00
41547;DHT22;27271;45.412;10.852;2024-02-16T01:11:09;4.50;1.00
41547;DHT22;27271;45.412;10.852;2024-02-16T01:14:31;4.40;1.00
41547;DHT22;27271;45.412;10.852;2024-02-16T01:17:53;4.40;1.00
41547;DHT22;27271;45.412;10.852;2024-02-16T01:21:16;4.30;1.00
41547;DHT22;27271;45.412;10.852;2024-02-16T01:24:38;4.20;1.00
41547;DHT22;27271;45.412;10.852;2024-02-16T01:28:00;4.20;1.00
41547;DHT22;27271;45.412;10.852;2024-02-16T01:31:23;4.10;1.00
41547;DHT22;27271;45.412;10.852;2024-02-16T01:34:45;4.10;1.00
41547;DHT22;27271;45.412;10.852;2024-02-16T01:38:08;4.10;1.00
41547;DHT22;27271;45.412;10.852;2024-02-16T01:41:31;4.00;1.00
41547;DHT22;27271;45.412;10.852;2024-02-16T01:44:53;4.00;1.00
41547;DHT22;27271;45.412;10.852;2024-02-16T01:48:16;3.90;1.00
41547;DHT22;27271;45.412;10.852;2024-02-16T01:51:38;3.90;1.00
41547;DHT22;27271;45.412;10.852;2024-02-16T01:55:00;3.80;1.00
41547;DHT22;27271;45.412;10.852;2024-02-16T01:58:25;3.80;1.00
41547;DHT22;27271;45.412;10.852;2024-02-16T02:01:48;3.70;1.00
41547;DHT22;27271;45.412;10.852;2024-02-16T02:05:11;3.70;1.00
41547;DHT22;27271;45.412;10.852;2024-02-16T02:08:34;3.60;1.00
41547;DHT22;27271;45.412;10.852;2024-02-16T02:11:56;3.50;1.00
41547;DHT22;27271;45.412;10.852;2024-02-16T02:15:18;3.50;1.00
41547;DHT22;27271;45.412;10.852;2024-02-16T02:18:41;3.60;20.80
41547;DHT22;27271;45.412;10.852;2024-02-16T02:22:25;3.60;13.30
41547;DHT22;27271;45.412;10.852;2024-02-16T02:25:48;3.60;12.90
41547;DHT22;27271;45.412;10.852;2024-02-16T02:29:12;3.60;21.80
41547;DHT22;27271;45.412;10.852;2024-02-16T02:32:34;3.60;29.00
41547;DHT22;27271;45.412;10.852;2024-02-16T02:35:56;3.60;18.30
41547;DHT22;27271;45.412;10.852;2024-02-16T02:39:18;3.70;19.00
41547;DHT22;27271;45.412;10.852;2024-02-16T02:42:40;3.70;6.70
41547;DHT22;27271;45.412;10.852;2024-02-16T02:46:02;3.80;2.70
41547;DHT22;27271;45.412;10.852;2024-02-16T02:49:25;3.90;1.00
41547;DHT22;27271;45.412;10.852;2024-02-16T02:52:47;3.90;1.00
41547;DHT22;27271;45.412;10.852;2024-02-16T02:56:09;3.80;1.00
41547;DHT22;27271;45.412;10.852;2024-02-16T02:59:31;3.90;1.00
41547;DHT22;27271;45.412;10.852;2024-02-16T03:02:54;4.00;1.00
41547;DHT22;27271;45.412;10.852;2024-02-16T03:06:18;4.00;1.00
41547;DHT22;27271;45.412;10.852;2024-02-16T03:09:40;4.00;1.00
41547;DHT22;27271;45.412;10.852;2024-02-16T03:13:05;3.90;1.00
41547;DHT22;27271;45.412;10.852;2024-02-16T03:16:28;4.10;1.00
41547;DHT22;27271;45.412;10.852;2024-02-16T03:19:50;4.30;1.00
41547;DHT22;27271;45.412;10.852;2024-02-16T03:23:14;4.30;1.00
41547;DHT22;27271;45.412;10.852;2024-02-16T03:26:36;4.20;1.00
41547;DHT22;27271;45.412;10.852;2024-02-16T03:29:58;4.20;1.00
41547;DHT22;27271;45.412;10.852;2024-02-16T03:33:21;4.10;99.90
41547;DHT22;27271;45.412;10.852;2024-02-16T03:36:43;3.90;99.90
41547;DHT22;27271;45.412;10.852;2024-02-16T03:40:06;3.80;99.90
41547;DHT22;27271;45.412;10.852;2024-02-16T03:43:30;3.70;1.00
41547;DHT22;27271;45.412;10.852;2024-02-16T03:46:52;3.70;1.00
41547;DHT22;27271;45.412;10.852;2024-02-16T03:50:17;3.60;1.00
41547;DHT22;27271;45.412;10.852;2024-02-16T03:53:39;3.60;1.00
41547;DHT22;27271;45.412;10.852;2024-02-16T03:57:01;3.60;1.00
41547;DHT22;27271;45.412;10.852;2024-02-16T04:00:28;3.60;1.00
41547;DHT22;27271;45.412;10.852;2024-02-16T04:03:50;3.60;1.00
41547;DHT22;27271;45.412;10.852;2024-02-16T04:07:17;3.70;1.00
41547;DHT22;27271;45.412;10.852;2024-02-16T04:10:39;3.70;1.00
41547;DHT22;27271;45.412;10.852;2024-02-16T04:14:01;3.70;1.00
41547;DHT22;27271;45.412;10.852;2024-02-16T04:17:23;3.90;36.90
41547;DHT22;27271;45.412;10.852;2024-02-16T04:20:45;3.90;1.00
41547;DHT22;27271;45.412;10.852;2024-02-16T04:24:08;3.90;1.00
41547;DHT22;27271;45.412;10.852;2024-02-16T04:27:30;3.90;1.00
41547;DHT22;27271;45.412;10.852;2024-02-16T04:30:52;4.00;1.00
41547;DHT22;27271;45.412;10.852;2024-02-16T04:34:14;3.90;1.00
41547;DHT22;27271;45.412;10.852;2024-02-16T04:37:38;3.90;1.00
41547;DHT22;27271;45.412;10.852;2024-02-16T04:41:06;3.90;1.00
41547;DHT22;27271;45.412;10.852;2024-02-16T04:44:28;3.80;1.00
41547;DHT22;27271;45.412;10.852;2024-02-16T04:47:50;3.80;1.00
41547;DHT22;27271;45.412;10.852;2024-02-16T04:51:13;3.70;1.00
41547;DHT22;27271;45.412;10.852;2024-02-16T04:54:36;3.70;1.00
41547;DHT22;27271;45.412;10.852;2024-02-16T04:57:58;3.70;1.00
41547;DHT22;27271;45.412;10.852;2024-02-16T05:01:20;3.60;1.00
41547;DHT22;27271;45.412;10.852;2024-02-16T05:04:42;3.60;1.00
41547;DHT22;27271;45.412;10.852;2024-02-16T05:08:05;3.60;1.00
41547;DHT22;27271;45.412;10.852;2024-02-16T05:11:27;3.50;1.00
41547;DHT22;27271;45.412;10.852;2024-02-16T05:14:51;3.50;1.00
41547;DHT22;27271;45.412;10.852;2024-02-16T05:18:14;3.50;1.00
41547;DHT22;27271;45.412;10.852;2024-02-16T05:21:37;3.50;3.60
41547;DHT22;27271;45.412;10.852;2024-02-16T05:24:59;3.50;27.30
41547;DHT22;27271;45.412;10.852;2024-02-16T05:28:21;3.50;64.10
41547;DHT22;27271;45.412;10.852;2024-02-16T05:31:43;3.50;47.40
41547;DHT22;27271;45.412;10.852;2024-02-16T05:35:06;3.50;54.10
41547;DHT22;27271;45.412;10.852;2024-02-16T05:38:35;3.50;74.00
41547;DHT22;27271;45.412;10.852;2024-02-16T05:42:03;3.50;16.10
41547;DHT22;27271;45.412;10.852;2024-02-16T05:45:25;3.40;6.20
41547;DHT22;27271;45.412;10.852;2024-02-16T05:48:51;3.40;7.30
41547;DHT22;27271;45.412;10.852;2024-02-16T05:52:13;3.30;1.00
41547;DHT22;27271;45.412;10.852;2024-02-16T05:55:42;3.30;20.40
41547;DHT22;27271;45.412;10.852;2024-02-16T05:59:06;3.20;16.90
41547;DHT22;27271;45.412;10.852;2024-02-16T06:02:28;3.10;11.20
41547;DHT22;27271;45.412;10.852;2024-02-16T06:05:50;3.10;13.90
41547;DHT22;27271;45.412;10.852;2024-02-16T06:09:12;3.10;1.00
41547;DHT22;27271;45.412;10.852;2024-02-16T06:12:36;3.00;12.20
41547;DHT22;27271;45.412;10.852;2024-02-16T06:16:00;3.00;16.20
41547;DHT22;27271;45.412;10.852;2024-02-16T06:19:22;2.90;12.10
41547;DHT22;27271;45.412;10.852;2024-02-16T06:22:44;2.90;31.60
41547;DHT22;27271;45.412;10.852;2024-02-16T06:26:06;2.90;26.00
41547;DHT22;27271;45.412;10.852;2024-02-16T06:29:29;3.00;65.70
41547;DHT22;27271;45.412;10.852;2024-02-16T06:32:52;3.10;92.10
41547;DHT22;27271;45.412;10.852;2024-02-16T06:36:17;3.20;92.50
41547;DHT22;27271;45.412;10.852;2024-02-16T06:39:39;3.40;99.90
41547;DHT22;27271;45.412;10.852;2024-02-16T06:43:02;3.50;97.50
41547;DHT22;27271;45.412;10.852;2024-02-16T06:46:24;3.60;91.80
41547;DHT22;27271;45.412;10.852;2024-02-16T06:49:49;3.70;89.30
41547;DHT22;27271;45.412;10.852;2024-02-16T06:53:11;3.80;74.50
41547;DHT22;27271;45.412;10.852;2024-02-16T06:56:33;3.90;83.10
41547;DHT22;27271;45.412;10.852;2024-02-16T06:59:56;4.20;79.20
41547;DHT22;27271;45.412;10.852;2024-02-16T07:03:19;4.40;53.70
41547;DHT22;27271;45.412;10.852;2024-02-16T07:06:42;4.70;1.00
41547;DHT22;27271;45.412;10.852;2024-02-16T07:10:05;5.00;99.90
41547;DHT22;27271;45.412;10.852;2024-02-16T07:13:28;5.30;99.90
41547;DHT22;27271;45.412;10.852;2024-02-16T07:16:50;5.50;99.90
41547;DHT22;27271;45.412;10.852;2024-02-16T07:20:12;5.60;99.90
41547;DHT22;27271;45.412;10.852;2024-02-16T07:23:37;5.80;99.90
41547;DHT22;27271;45.412;10.852;2024-02-16T07:27:00;6.20;99.90
41547;DHT22;27271;45.412;10.852;2024-02-16T07:30:26;7.10;99.90
41547;DHT22;27271;45.412;10.852;2024-02-16T07:34:01;7.40;1.00
41547;DHT22;27271;45.412;10.852;2024-02-16T07:37:24;7.50;1.00
41547;DHT22;27271;45.412;10.852;2024-02-16T07:40:46;7.80;1.00
41547;DHT22;27271;45.412;10.852;2024-02-16T07:44:08;8.20;1.00
41547;DHT22;27271;45.412;10.852;2024-02-16T07:47:31;9.40;1.00
41547;DHT22;27271;45.412;10.852;2024-02-16T07:50:54;10.40;1.00
41547;DHT22;27271;45.412;10.852;2024-02-16T07:54:17;11.00;99.90
41547;DHT22;27271;45.412;10.852;2024-02-16T07:57:39;11.30;99.90
41547;DHT22;27271;45.412;10.852;2024-02-16T08:01:01;11.60;99.90
41547;DHT22;27271;45.412;10.852;2024-02-16T08:04:24;12.10;99.90
41547;DHT22;27271;45.412;10.852;2024-02-16T08:07:46;12.60;99.90
41547;DHT22;27271;45.412;10.852;2024-02-16T08:11:09;12.80;99.90
41547;DHT22;27271;45.412;10.852;2024-02-16T08:14:31;13.10;99.90
41547;DHT22;27271;45.412;10.852;2024-02-16T08:17:54;13.20;99.90
41547;DHT22;27271;45.412;10.852;2024-02-16T08:21:16;13.20;99.90
41547;DHT22;27271;45.412;10.852;2024-02-16T08:24:39;13.40;99.90
41547;DHT22;27271;45.412;10.852;2024-02-16T08:28:01;13.50;99.90
41547;DHT22;27271;45.412;10.852;2024-02-16T08:31:23;12.80;99.90
41547;DHT22;27271;45.412;10.852;2024-02-16T08:34:45;12.80;99.90
41547;DHT22;27271;45.412;10.852;2024-02-16T08:38:07;13.20;99.90
41547;DHT22;27271;45.412;10.852;2024-02-16T08:41:34;13.20;99.90
41547;DHT22;27271;45.412;10.852;2024-02-16T08:44:56;12.80;99.90
41547;DHT22;27271;45.412;10.852;2024-02-16T08:48:23;12.70;99.90
41547;DHT22;27271;45.412;10.852;2024-02-16T08:51:47;12.50;99.90
41547;DHT22;27271;45.412;10.852;2024-02-16T08:55:09;12.90;99.90
41547;DHT22;27271;45.412;10.852;2024-02-16T08:58:31;13.00;99.90
41547;DHT22;27271;45.412;10.852;2024-02-16T09:01:53;13.30;99.90
41547;DHT22;27271;45.412;10.852;2024-02-16T09:05:15;13.40;99.90
41547;DHT22;27271;45.412;10.852;2024-02-16T09:08:38;13.80;99.90
41547;DHT22;27271;45.412;10.852;2024-02-16T09:12:00;14.60;99.90
41547;DHT22;27271;45.412;10.852;2024-02-16T09:15:22;14.10;99.90
41547;DHT22;27271;45.412;10.852;2024-02-16T09:18:44;13.60;99.90
41547;DHT22;27271;45.412;10.852;2024-02-16T09:22:07;13.90;99.90
41547;DHT22;27271;45.412;10.852;2024-02-16T09:25:29;13.70;99.90
41547;DHT22;27271;45.412;10.852;2024-02-16T09:28:51;13.50;99.90
41547;DHT22;27271;45.412;10.852;2024-02-16T09:32:15;14.10;99.90
41547;DHT22;27271;45.412;10.852;2024-02-16T09:35:37;14.40;99.90
41547;DHT22;27271;45.412;10.852;2024-02-16T09:38:59;14.30;99.90
41547;DHT22;27271;45.412;10.852;2024-02-16T09:42:23;13.90;99.90
41547;DHT22;27271;45.412;10.852;2024-02-16T09:45:46;13.80;99.90
41547;DHT22;27271;45.412;10.852;2024-02-16T09:49:08;14.00;99.90
41547;DHT22;27271;45.412;10.852;2024-02-16T09:52:31;13.60;99.90
41547;DHT22;27271;45.412;10.852;2024-02-16T09:55:53;13.50;99.90
41547;DHT22;27271;45.412;10.852;2024-02-16T09:59:16;13.60;99.90
41547;DHT22;27271;45.412;10.852;2024-02-16T10:02:43;13.60;99.90
41547;DHT22;27271;45.412;10.852;2024-02-16T10:06:07;13.40;99.90
41547;DHT22;27271;45.412;10.852;2024-02-16T10:09:30;13.00;99.90
41547;DHT22;27271;45.412;10.852;2024-02-16T10:13:05;13.10;99.90
41547;DHT22;27271;45.412;10.852;2024-02-16T10:16:27;13.30;99.90
41547;DHT22;27271;45.412;10.852;2024-02-16T10:19:56;13.50;99.90
41547;DHT22;27271;45.412;10.852;2024-02-16T10:23:19;13.40;99.90
41547;DHT22;27271;45.412;10.852;2024-02-16T10:26:41;13.40;99.90
41547;DHT22;27271;45.412;10.852;2024-02-16T10:30:08;13.50;99.90
41547;DHT22;27271;45.412;10.852;2024-02-16T10:33:34;13.70;99.90
41547;DHT22;27271;45.412;10.852;2024-02-16T10:36:59;13.80;99.90
41547;DHT22;27271;45.412;10.852;2024-02-16T10:40:22;13.80;99.90
41547;DHT22;27271;45.412;10.852;2024-02-16T10:43:48;13.80;99.90
41547;DHT22;27271;45.412;10.852;2024-02-16T10:47:10;13.50;99.90
41547;DHT22;27271;45.412;10.852;2024-02-16T10:50:34;13.30;99.90
41547;DHT22;27271;45.412;10.852;2024-02-16T10:54:00;13.50;99.90
41547;DHT22;27271;45.412;10.852;2024-02-16T10:57:23;13.70;99.90
41547;DHT22;27271;45.412;10.852;2024-02-16T11:00:53;13.40;99.90
41547;DHT22;27271;45.412;10.852;2024-02-16T11:04:17;13.30;99.90
41547;DHT22;27271;45.412;10.852;2024-02-16T11:07:39;13.40;99.90
41547;DHT22;27271;45.412;10.852;2024-02-16T11:11:02;13.90;99.90
41547;DHT22;27271;45.412;10.852;2024-02-16T11:18:04;13.70;99.90
41547;DHT22;27271;45.412;10.852;2024-02-16T11:21:27;13.90;99.90
41547;DHT22;27271;45.412;10.852;2024-02-16T11:24:50;13.70;99.90
41547;DHT22;27271;45.412;10.852;2024-02-16T11:28:16;13.70;99.90
41547;DHT22;27271;45.412;10.852;2024-02-16T11:31:40;13.90;99.90
41547;DHT22;27271;45.412;10.852;2024-02-16T11:35:06;14.50;99.90
41547;DHT22;27271;45.412;10.852;2024-02-16T11:38:31;14.60;99.90
41547;DHT22;27271;45.412;10.852;2024-02-16T11:42:19;14.10;99.90
41547;DHT22;27271;45.412;10.852;2024-02-16T11:45:42;13.70;99.90
41547;DHT22;27271;45.412;10.852;2024-02-16T11:49:07;13.80;99.90
41547;DHT22;27271;45.412;10.852;2024-02-16T11:52:31;14.50;99.90
41547;DHT22;27271;45.412;10.852;2024-02-16T11:55:53;14.30;99.90
41547;DHT22;27271;45.412;10.852;2024-02-16T11:59:15;14.10;99.90
41547;DHT22;27271;45.412;10.852;2024-02-16T12:02:37;14.50;99.90
41547;DHT22;27271;45.412;10.852;2024-02-16T12:05:59;15.20;99.90
41547;DHT22;27271;45.412;10.852;2024-02-16T12:09:23;15.80;99.90
41547;DHT22;27271;45.412;10.852;2024-02-16T12:12:47;15.40;99.90
41547;DHT22;27271;45.412;10.852;2024-02-16T12:16:10;15.70;99.90
41547;DHT22;27271;45.412;10.852;2024-02-16T12:19:33;15.60;99.90
41547;DHT22;27271;45.412;10.852;2024-02-16T12:22:55;15.50;99.90
41547;DHT22;27271;45.412;10.852;2024-02-16T12:26:17;15.20;99.90
41547;DHT22;27271;45.412;10.852;2024-02-16T12:29:39;15.20;99.90
41547;DHT22;27271;45.412;10.852;2024-02-16T12:33:01;14.80;99.90
41547;DHT22;27271;45.412;10.852;2024-02-16T12:36:24;14.90;99.90
41547;DHT22;27271;45.412;10.852;2024-02-16T12:39:46;14.50;99.90
41547;DHT22;27271;45.412;10.852;2024-02-16T12:43:09;14.50;99.90
41547;DHT22;27271;45.412;10.852;2024-02-16T12:46:32;14.50;99.90
41547;DHT22;27271;45.412;10.852;2024-02-16T12:49:56;14.10;99.90
41547;DHT22;27271;45.412;10.852;2024-02-16T12:53:20;14.30;99.90
41547;DHT22;27271;45.412;10.852;2024-02-16T12:56:42;14.00;99.90
41547;DHT22;27271;45.412;10.852;2024-02-16T13:00:07;14.10;99.90
41547;DHT22;27271;45.412;10.852;2024-02-16T13:03:29;14.20;99.90
41547;DHT22;27271;45.412;10.852;2024-02-16T13:06:51;14.10;99.90
41547;DHT22;27271;45.412;10.852;2024-02-16T13:10:15;14.20;99.90
41547;DHT22;27271;45.412;10.852;2024-02-16T13:13:37;14.30;99.90
41547;DHT22;27271;45.412;10.852;2024-02-16T13:16:59;14.50;99.90
41547;DHT22;27271;45.412;10.852;2024-02-16T13:20:21;14.80;99.90
41547;DHT22;27271;45.412;10.852;2024-02-16T13:23:43;14.60;99.90
41547;DHT22;27271;45.412;10.852;2024-02-16T13:27:06;14.50;99.90
41547;DHT22;27271;45.412;10.852;2024-02-16T13:30:28;14.70;99.90
41547;DHT22;27271;45.412;10.852;2024-02-16T13:33:53;14.80;99.90
41547;DHT22;27271;45.412;10.852;2024-02-16T13:37:16;14.80;99.90
41547;DHT22;27271;45.412;10.852;2024-02-16T13:40:38;14.70;99.90
41547;DHT22;27271;45.412;10.852;2024-02-16T13:44:02;14.90;99.90
41547;DHT22;27271;45.412;10.852;2024-02-16T13:47:24;14.90;99.90
41547;DHT22;27271;45.412;10.852;2024-02-16T13:50:47;15.10;99.90
41547;DHT22;27271;45.412;10.852;2024-02-16T13:54:09;14.60;99.90
41547;DHT22;27271;45.412;10.852;2024-02-16T13:57:31;14.30;99.90
41547;DHT22;27271;45.412;10.852;2024-02-16T14:00:53;14.40;99.90
41547;DHT22;27271;45.412;10.852;2024-02-16T14:04:16;14.30;99.90
41547;DHT22;27271;45.412;10.852;2024-02-16T14:07:38;14.40;99.90
41547;DHT22;27271;45.412;10.852;2024-02-16T14:11:14;14.60;99.90
41547;DHT22;27271;45.412;10.852;2024-02-16T14:14:36;14.40;99.90
41547;DHT22;27271;45.412;10.852;2024-02-16T14:17:59;14.30;99.90
41547;DHT22;27271;45.412;10.852;2024-02-16T14:21:32;14.50;99.90
41547;DHT22;27271;45.412;10.852;2024-02-16T14:24:54;14.60;99.90
41547;DHT22;27271;45.412;10.852;2024-02-16T14:28:17;14.50;99.90
41547;DHT22;27271;45.412;10.852;2024-02-16T14:31:39;14.40;99.90
41547;DHT22;27271;45.412;10.852;2024-02-16T14:35:01;14.10;99.90
41547;DHT22;27271;45.412;10.852;2024-02-16T14:38:24;14.10;99.90
41547;DHT22;27271;45.412;10.852;2024-02-16T14:41:46;14.10;99.90
41547;DHT22;27271;45.412;10.852;2024-02-16T14:45:08;14.00;99.90
41547;DHT22;27271;45.412;10.852;2024-02-16T14:48:31;13.90;99.90
41547;DHT22;27271;45.412;10.852;2024-02-16T14:51:54;13.90;99.90
41547;DHT22;27271;45.412;10.852;2024-02-16T14:55:16;13.90;99.90
41547;DHT22;27271;45.412;10.852;2024-02-16T14:58:38;13.80;99.90
41547;DHT22;27271;45.412;10.852;2024-02-16T15:02:00;14.10;99.90
41547;DHT22;27271;45.412;10.852;2024-02-16T15:05:24;14.20;99.90
41547;DHT22;27271;45.412;10.852;2024-02-16T15:08:46;14.20;99.90
41547;DHT22;27271;45.412;10.852;2024-02-16T15:12:08;13.90;99.90
41547;DHT22;27271;45.412;10.852;2024-02-16T15:15:30;13.60;99.90
41547;DHT22;27271;45.412;10.852;2024-02-16T15:18:53;13.40;99.90
41547;DHT22;27271;45.412;10.852;2024-02-16T15:22:15;13.20;99.90
41547;DHT22;27271;45.412;10.852;2024-02-16T15:25:37;13.00;99.90
41547;DHT22;27271;45.412;10.852;2024-02-16T15:28:59;12.90;99.90
41547;DHT22;27271;45.412;10.852;2024-02-16T15:32:21;12.80;99.90
41547;DHT22;27271;45.412;10.852;2024-02-16T15:35:44;12.70;99.90
41547;DHT22;27271;45.412;10.852;2024-02-16T15:39:06;12.50;99.90
41547;DHT22;27271;45.412;10.852;2024-02-16T15:42:29;12.30;99.90
41547;DHT22;27271;45.412;10.852;2024-02-16T15:45:53;12.30;99.90
41547;DHT22;27271;45.412;10.852;2024-02-16T15:49:15;12.10;99.90
41547;DHT22;27271;45.412;10.852;2024-02-16T15:52:37;12.00;99.90
41547;DHT22;27271;45.412;10.852;2024-02-16T15:56:00;11.80;99.90
41547;DHT22;27271;45.412;10.852;2024-02-16T15:59:25;11.80;99.90
41547;DHT22;27271;45.412;10.852;2024-02-16T16:02:47;11.70;99.90
41547;DHT22;27271;45.412;10.852;2024-02-16T16:06:09;11.60;99.90
41547;DHT22;27271;45.412;10.852;2024-02-16T16:09:32;11.40;99.90
41547;DHT22;27271;45.412;10.852;2024-02-16T16:12:54;11.20;99.90
41547;DHT22;27271;45.412;10.852;2024-02-16T16:16:18;11.00;99.90
41547;DHT22;27271;45.412;10.852;2024-02-16T16:19:40;11.00;99.90
41547;DHT22;27271;45.412;10.852;2024-02-16T16:23:02;10.90;99.90
41547;DHT22;27271;45.412;10.852;2024-02-16T16:26:24;10.70;99.90
41547;DHT22;27271;45.412;10.852;2024-02-16T16:29:48;10.50;99.90
41547;DHT22;27271;45.412;10.852;2024-02-16T16:33:10;10.50;99.90
41547;DHT22;27271;45.412;10.852;2024-02-16T16:36:32;10.40;99.90
41547;DHT22;27271;45.412;10.852;2024-02-16T16:39:54;10.20;99.90
41547;DHT22;27271;45.412;10.852;2024-02-16T16:43:17;10.10;1.00
41547;DHT22;27271;45.412;10.852;2024-02-16T16:46:41;9.90;1.00
41547;DHT22;27271;45.412;10.852;2024-02-16T16:50:03;9.70;1.00
41547;DHT22;27271;45.412;10.852;2024-02-16T16:53:26;9.60;1.00
41547;DHT22;27271;45.412;10.852;2024-02-16T16:56:48;9.40;1.00
41547;DHT22;27271;45.412;10.852;2024-02-16T17:00:11;9.30;1.00
41547;DHT22;27271;45.412;10.852;2024-02-16T17:03:34;9.20;1.00
41547;DHT22;27271;45.412;10.852;2024-02-16T17:06:56;9.10;1.00
41547;DHT22;27271;45.412;10.852;2024-02-16T17:10:18;9.00;1.00
41547;DHT22;27271;45.412;10.852;2024-02-16T17:13:40;8.90;1.00
41547;DHT22;27271;45.412;10.852;2024-02-16T17:17:03;8.70;14.40
41547;DHT22;27271;45.412;10.852;2024-02-16T17:20:25;8.70;33.30
41547;DHT22;27271;45.412;10.852;2024-02-16T17:23:48;8.60;33.90
41547;DHT22;27271;45.412;10.852;2024-02-16T17:27:11;8.50;61.00
41547;DHT22;27271;45.412;10.852;2024-02-16T17:30:34;8.40;87.50
41547;DHT22;27271;45.412;10.852;2024-02-16T17:33:57;8.30;99.90
41547;DHT22;27271;45.412;10.852;2024-02-16T17:37:20;8.30;99.90
41547;DHT22;27271;45.412;10.852;2024-02-16T17:40:42;8.40;98.20
41547;DHT22;27271;45.412;10.852;2024-02-16T17:44:04;8.10;79.90
41547;DHT22;27271;45.412;10.852;2024-02-16T17:47:27;8.00;98.50
41547;DHT22;27271;45.412;10.852;2024-02-16T17:50:49;7.90;99.90
41547;DHT22;27271;45.412;10.852;2024-02-16T17:54:11;7.80;99.90
41547;DHT22;27271;45.412;10.852;2024-02-16T17:57:33;7.70;99.90
41547;DHT22;27271;45.412;10.852;2024-02-16T18:00:56;7.70;99.90
41547;DHT22;27271;45.412;10.852;2024-02-16T18:04:18;7.70;99.90
41547;DHT22;27271;45.412;10.852;2024-02-16T18:07:41;7.70;99.90
41547;DHT22;27271;45.412;10.852;2024-02-16T18:11:03;7.70;99.90
41547;DHT22;27271;45.412;10.852;2024-02-16T18:14:26;7.70;99.90
41547;DHT22;27271;45.412;10.852;2024-02-16T18:17:51;7.80;99.90
41547;DHT22;27271;45.412;10.852;2024-02-16T18:21:13;7.80;99.90
41547;DHT22;27271;45.412;10.852;2024-02-16T18:24:35;7.70;99.90
41547;DHT22;27271;45.412;10.852;2024-02-16T18:27:59;7.70;99.90
41547;DHT22;27271;45.412;10.852;2024-02-16T18:31:21;7.70;99.90
41547;DHT22;27271;45.412;10.852;2024-02-16T18:34:43;7.70;99.90
41547;DHT22;27271;45.412;10.852;2024-02-16T18:38:06;7.60;99.90
41547;DHT22;27271;45.412;10.852;2024-02-16T18:41:29;7.60;99.90
41547;DHT22;27271;45.412;10.852;2024-02-16T18:44:51;7.60;99.90
41547;DHT22;27271;45.412;10.852;2024-02-16T18:48:14;7.50;99.90
41547;DHT22;27271;45.412;10.852;2024-02-16T18:51:36;7.40;99.90
41547;DHT22;27271;45.412;10.852;2024-02-16T18:54:59;7.40;99.90
41547;DHT22;27271;45.412;10.852;2024-02-16T18:58:21;7.40;99.90
41547;DHT22;27271;45.412;10.852;2024-02-16T19:01:43;7.40;99.90
41547;DHT22;27271;45.412;10.852;2024-02-16T19:05:06;7.40;99.90
41547;DHT22;27271;45.412;10.852;2024-02-16T19:08:30;7.30;99.90
41547;DHT22;27271;45.412;10.852;2024-02-16T19:11:51;7.30;99.90
41547;DHT22;27271;45.412;10.852;2024-02-16T19:15:14;7.30;99.90
41547;DHT22;27271;45.412;10.852;2024-02-16T19:18:36;7.30;99.90
41547;DHT22;27271;45.412;10.852;2024-02-16T19:21:58;7.30;99.90
41547;DHT22;27271;45.412;10.852;2024-02-16T19:25:20;7.30;99.90
41547;DHT22;27271;45.412;10.852;2024-02-16T19:28:45;7.30;99.90
41547;DHT22;27271;45.412;10.852;2024-02-16T19:32:07;7.30;99.90
41547;DHT22;27271;45.412;10.852;2024-02-16T19:35:30;7.30;99.90
41547;DHT22;27271;45.412;10.852;2024-02-16T19:38:55;7.20;99.90
41547;DHT22;27271;45.412;10.852;2024-02-16T19:42:20;7.20;99.90
41547;DHT22;27271;45.412;10.852;2024-02-16T19:45:42;7.20;99.90
41547;DHT22;27271;45.412;10.852;2024-02-16T19:49:04;7.20;99.90
41547;DHT22;27271;45.412;10.852;2024-02-16T19:52:26;7.20;99.90
41547;DHT22;27271;45.412;10.852;2024-02-16T19:55:49;7.20;99.90
41547;DHT22;27271;45.412;10.852;2024-02-16T19:59:11;7.20;99.90
41547;DHT22;27271;45.412;10.852;2024-02-16T20:02:34;7.20;99.90
41547;DHT22;27271;45.412;10.852;2024-02-16T20:05:56;7.20;99.90
41547;DHT22;27271;45.412;10.852;2024-02-16T20:09:18;7.20;99.90
41547;DHT22;27271;45.412;10.852;2024-02-16T20:12:43;7.10;99.90
41547;DHT22;27271;45.412;10.852;2024-02-16T20:16:06;7.10;99.90
41547;DHT22;27271;45.412;10.852;2024-02-16T20:19:29;7.10;99.90
41547;DHT22;27271;45.412;10.852;2024-02-16T20:22:51;7.10;99.90
41547;DHT22;27271;45.412;10.852;2024-02-16T20:26:24;7.00;99.90
41547;DHT22;27271;45.412;10.852;2024-02-16T20:29:46;7.00;99.90
41547;DHT22;27271;45.412;10.852;2024-02-16T20:33:09;7.00;99.90
41547;DHT22;27271;45.412;10.852;2024-02-16T20:36:32;7.00;99.90
41547;DHT22;27271;45.412;10.852;2024-02-16T20:39:54;7.00;99.90
41547;DHT22;27271;45.412;10.852;2024-02-16T20:43:16;6.90;99.90
41547;DHT22;27271;45.412;10.852;2024-02-16T20:46:38;6.80;1.00
41547;DHT22;27271;45.412;10.852;2024-02-16T20:50:01;6.90;1.00
41547;DHT22;27271;45.412;10.852;2024-02-16T20:53:24;6.80;99.90
41547;DHT22;27271;45.412;10.852;2024-02-16T20:56:46;6.80;1.00
41547;DHT22;27271;45.412;10.852;2024-02-16T21:00:08;6.70;1.00
41547;DHT22;27271;45.412;10.852;2024-02-16T21:03:33;6.70;99.90
41547;DHT22;27271;45.412;10.852;2024-02-16T21:06:55;6.70;1.00
41547;DHT22;27271;45.412;10.852;2024-02-16T21:10:17;6.60;99.90
41547;DHT22;27271;45.412;10.852;2024-02-16T21:13:40;6.60;1.00
41547;DHT22;27271;45.412;10.852;2024-02-16T21:17:02;6.50;1.00
41547;DHT22;27271;45.412;10.852;2024-02-16T21:20:24;6.60;1.00
41547;DHT22;27271;45.412;10.852;2024-02-16T21:23:46;6.60;1.00